CYNL

METAR CYNL 221000Z AUTO 33007KT OVC011 M09/M11 A3018 RMK AO1 PRESRR SLP259
METAR
LOCATION
CYNL
DATE - TIME
221000Z
WIND
330 TRUE @ 7 KNOTS
VISIBILITY
RUNWAY VISUAL RANGE
NOT REPORTED
WEATHER
CLOUDINESS
OVC011
TEMP / DEWPOINT
-9 ºC / -11 ºC
ALTIMETER
30.18 in. Hg
RECENT WEATHER
NOT REPORTED
WIND SHEAR
NOT REPORTED
REMARKS
RMK AO1 PRESRR SLP259
SEA LEVEL PRESSURE: hPa

CYNL

SPECI CYNL 220942Z AUTO 32006KT BKN013 M09/M11 A3017 RMK AO1 PRESRR SLP256
SPECI
LOCATION
CYNL
DATE - TIME
220942Z
WIND
320 TRUE @ 6 KNOTS
VISIBILITY
RUNWAY VISUAL RANGE
NOT REPORTED
WEATHER
CLOUDINESS
BKN013
TEMP / DEWPOINT
-9 ºC / -11 ºC
ALTIMETER
30.17 in. Hg
RECENT WEATHER
NOT REPORTED
WIND SHEAR
NOT REPORTED
REMARKS
RMK AO1 PRESRR SLP256
SEA LEVEL PRESSURE: hPa

CYNL

METAR CYNL 220900Z AUTO 33008KT CLR M08/M11 A3015 RMK AO1 PRESRR SLP247
METAR
LOCATION
CYNL
DATE - TIME
220900Z
WIND
330 TRUE @ 8 KNOTS
VISIBILITY
RUNWAY VISUAL RANGE
NOT REPORTED
WEATHER
CLOUDINESS
CLR
TEMP / DEWPOINT
-8 ºC / -11 ºC
ALTIMETER
30.15 in. Hg
RECENT WEATHER
NOT REPORTED
WIND SHEAR
NOT REPORTED
REMARKS
RMK AO1 PRESRR SLP247
SEA LEVEL PRESSURE: hPa

Your time UTC time
 
 
Weather data provided by AXYS Technologies Inc., www.axystechnologies.com
 
Station History